createdAt,value
2023-04-10T00:00:13.332Z,102184.47
2023-04-10T00:02:41.017Z,102181.56
2023-04-10T00:05:09.373Z,102181.94
2023-04-10T00:07:36.781Z,102181.84
2023-04-10T00:10:04.486Z,102184.25
2023-04-10T00:12:33.381Z,102183.56
2023-04-10T00:15:00.826Z,102177.03
2023-04-10T00:17:28.251Z,102168.97
2023-04-10T00:19:55.785Z,102170.31
2023-04-10T00:22:23.211Z,102172.97
2023-04-10T00:24:50.691Z,102169.19
2023-04-10T00:27:18.118Z,102163.50
2023-04-10T00:29:46.877Z,102158.94
2023-04-10T00:32:14.533Z,102157.22
2023-04-10T00:34:42.091Z,102156.72
2023-04-10T00:37:09.501Z,102156.81
2023-04-10T00:39:37.139Z,102148.50
2023-04-10T00:42:09.313Z,102145.97
2023-04-10T00:44:37.387Z,102152.97
2023-04-10T00:47:06.480Z,102146.84
2023-04-10T00:49:34.857Z,102138.13
2023-04-10T00:52:02.574Z,102147.44
2023-04-10T00:54:31.313Z,102140.69
2023-04-10T00:56:59.741Z,102142.13
2023-04-10T00:59:27.236Z,102144.78
2023-04-10T01:01:54.732Z,102143.56
2023-04-10T01:04:26.660Z,102140.94
2023-04-10T01:07:00.506Z,102143.34
2023-04-10T01:09:39.591Z,102139.41
2023-04-10T01:12:17.093Z,102147.72
2023-04-10T01:14:53.998Z,102140.00
2023-04-10T01:17:29.381Z,102131.84
2023-04-10T01:20:05.459Z,102135.28
2023-04-10T01:22:37.481Z,102136.88
2023-04-10T01:25:20.382Z,102137.84
2023-04-10T01:28:06.299Z,102145.16
2023-04-10T01:30:36.449Z,102140.16
2023-04-10T01:33:06.904Z,102139.91
2023-04-10T01:35:35.927Z,102137.28
2023-04-10T01:38:07.224Z,102147.38
2023-04-10T01:40:39.596Z,102148.59
2023-04-10T01:43:11.320Z,102142.97
2023-04-10T01:45:43.436Z,102143.22
2023-04-10T01:48:11.649Z,102139.66
2023-04-10T01:50:39.537Z,102136.75
2023-04-10T01:53:08.255Z,102134.88
2023-04-10T01:55:38.121Z,102127.88
2023-04-10T01:58:05.816Z,102126.56
2023-04-10T02:00:41.253Z,102130.09
2023-04-10T02:03:08.969Z,102133.34
2023-04-10T02:05:47.099Z,102138.84
2023-04-10T02:08:19.581Z,102138.34
2023-04-10T02:10:53.014Z,102138.28
2023-04-10T02:13:23.067Z,102130.84
2023-04-10T02:15:53.134Z,102132.38
2023-04-10T02:18:22.929Z,102134.16
2023-04-10T02:20:50.697Z,102126.69
2023-04-10T02:23:19.272Z,102122.53
2023-04-10T02:25:46.795Z,102131.00
2023-04-10T02:28:14.205Z,102131.22
2023-04-10T02:30:41.666Z,102130.09
2023-04-10T02:33:10.667Z,102135.88
2023-04-10T02:35:38.205Z,102132.47
2023-04-10T02:38:05.748Z,102127.09
2023-04-10T02:40:33.420Z,102127.59
2023-04-10T02:43:00.905Z,102131.09
2023-04-10T02:45:28.420Z,102134.00
2023-04-10T02:47:56.165Z,102128.78
2023-04-10T02:50:25.037Z,102142.03
2023-04-10T02:52:52.453Z,102144.09
2023-04-10T02:55:20.099Z,102140.13
2023-04-10T02:57:47.747Z,102132.34
2023-04-10T03:00:16.179Z,102133.22
2023-04-10T03:02:43.723Z,102135.63
2023-04-10T03:05:11.488Z,102139.47
2023-04-10T03:07:40.555Z,102138.34
2023-04-10T03:10:09.251Z,102141.75
2023-04-10T03:12:37.023Z,102138.72
2023-04-10T03:15:05.039Z,102139.47
2023-04-10T03:17:32.739Z,102146.25
2023-04-10T03:20:00.296Z,102142.78
2023-04-10T03:22:31.756Z,102151.25
2023-04-10T03:25:01.250Z,102145.25
2023-04-10T03:27:29.090Z,102139.41
2023-04-10T03:29:56.528Z,102140.91
2023-04-10T03:32:23.982Z,102133.44
2023-04-10T03:34:51.465Z,102134.72
2023-04-10T03:37:19.480Z,102139.53
2023-04-10T03:39:46.881Z,102133.97
2023-04-10T03:42:15.627Z,102138.06
2023-04-10T03:44:43.077Z,102143.47
2023-04-10T03:47:10.849Z,102145.59
2023-04-10T03:49:38.424Z,102143.28
2023-04-10T03:52:06.218Z,102145.19
2023-04-10T03:54:33.664Z,102140.59
2023-04-10T03:57:01.503Z,102144.09
2023-04-10T03:59:38.241Z,102143.03
2023-04-10T04:02:08.042Z,102146.31
2023-04-10T04:04:35.778Z,102146.06
2023-04-10T04:07:03.422Z,102146.31
2023-04-10T04:09:31.122Z,102140.31
2023-04-10T04:11:58.532Z,102145.78
2023-04-10T04:14:25.961Z,102134.72
2023-04-10T04:16:54.789Z,102147.28
2023-04-10T04:19:22.329Z,102146.84
2023-04-10T04:21:49.789Z,102136.84
2023-04-10T04:24:17.218Z,102135.06
2023-04-10T04:26:44.674Z,102134.72
2023-04-10T04:29:12.112Z,102137.75
2023-04-10T04:31:39.606Z,102134.47
2023-04-10T04:34:08.366Z,102140.84
2023-04-10T04:36:35.849Z,102140.13
2023-04-10T04:39:03.246Z,102134.75
2023-04-10T04:41:32.312Z,102134.56
2023-04-10T04:44:01.094Z,102132.13
2023-04-10T04:46:28.724Z,102134.47
2023-04-10T04:48:56.208Z,102139.22
2023-04-10T04:51:24.977Z,102136.22
2023-04-10T04:53:52.683Z,102137.25
2023-04-10T04:56:20.412Z,102134.06
2023-04-10T04:58:47.842Z,102134.72
2023-04-10T05:01:15.698Z,102133.00
2023-04-10T05:03:43.385Z,102136.03
2023-04-10T05:06:11.126Z,102133.22
2023-04-10T05:08:39.865Z,102134.06
2023-04-10T05:11:07.927Z,102126.09
2023-04-10T05:13:35.374Z,102124.75
2023-04-10T05:16:02.879Z,102128.81
2023-04-10T05:18:30.595Z,102132.41
2023-04-10T05:20:58.103Z,102137.78
2023-04-10T05:23:25.764Z,102132.59
2023-04-10T05:25:54.515Z,102133.59
2023-04-10T05:28:22.741Z,102135.44
2023-04-10T05:30:50.251Z,102141.16
2023-04-10T05:33:17.720Z,102138.69
2023-04-10T05:35:45.273Z,102132.38
2023-04-10T05:38:12.780Z,102135.34
2023-04-10T05:40:40.213Z,102134.53
2023-04-10T05:43:09.698Z,102122.44
2023-04-10T05:45:37.238Z,102113.78
2023-04-10T05:48:04.981Z,102110.56
2023-04-10T05:50:32.420Z,102111.03
2023-04-10T05:52:59.878Z,102122.16
2023-04-10T05:55:27.308Z,102119.06
2023-04-10T05:57:54.751Z,102112.78
2023-04-10T06:00:23.545Z,102100.16
2023-04-10T06:02:51.090Z,102103.25
2023-04-10T06:05:18.912Z,102104.09
2023-04-10T06:07:46.461Z,102111.28
2023-04-10T06:10:13.955Z,102123.34
2023-04-10T06:12:41.649Z,102117.59
2023-04-10T06:15:09.834Z,102116.13
2023-04-10T06:17:44.476Z,102112.94
2023-04-10T06:20:12.801Z,102116.84
2023-04-10T06:22:40.605Z,102115.31
2023-04-10T06:25:08.559Z,102110.53
2023-04-10T06:27:36.493Z,102115.06
2023-04-10T06:30:04.342Z,102108.75
2023-04-10T06:32:32.140Z,102108.88
2023-04-10T06:35:00.970Z,102116.69
2023-04-10T06:37:31.189Z,102110.44
2023-04-10T06:40:04.670Z,102103.63
2023-04-10T06:42:35.663Z,102106.31
2023-04-10T06:45:03.397Z,102105.44
2023-04-10T06:47:31.606Z,102102.84
2023-04-10T06:49:59.080Z,102104.88
2023-04-10T06:52:27.941Z,102112.94
2023-04-10T06:54:55.439Z,102108.75
2023-04-10T06:57:22.885Z,102105.47
2023-04-10T06:59:50.349Z,102099.97
2023-04-10T07:02:17.899Z,102101.06
2023-04-10T07:04:45.672Z,102097.53
2023-04-10T07:07:13.433Z,102102.88
2023-04-10T07:09:42.428Z,102101.81
2023-04-10T07:12:09.905Z,102105.34
2023-04-10T07:14:37.461Z,102105.88
2023-04-10T07:17:04.922Z,102109.88
2023-04-10T07:19:32.485Z,102098.56
2023-04-10T07:22:00.705Z,102104.16
2023-04-10T07:24:28.407Z,102107.38
2023-04-10T07:26:58.123Z,102110.66
2023-04-10T07:29:25.692Z,102111.69
2023-04-10T07:32:01.096Z,102112.19
2023-04-10T07:34:28.730Z,102110.28
2023-04-10T07:36:56.130Z,102106.63
2023-04-10T07:39:23.629Z,102096.84
2023-04-10T07:41:51.169Z,102100.69
2023-04-10T07:44:19.939Z,102084.78
2023-04-10T07:46:47.528Z,102083.44
2023-04-10T07:49:15.001Z,102084.78
2023-04-10T07:51:42.473Z,102098.66
2023-04-10T07:54:10.046Z,102097.59
2023-04-10T07:56:37.637Z,102089.09
2023-04-10T07:59:05.295Z,102086.66
2023-04-10T08:01:34.323Z,102074.31
2023-04-10T08:04:04.768Z,102075.78
2023-04-10T08:06:33.351Z,102079.19
2023-04-10T08:09:02.072Z,102070.56
2023-04-10T08:11:31.229Z,102083.06
2023-04-10T08:14:01.708Z,102069.03
2023-04-10T08:16:31.363Z,102064.25
2023-04-10T08:19:00.848Z,102061.97
2023-04-10T08:21:30.106Z,102064.91
2023-04-10T08:23:58.754Z,102060.88
2023-04-10T08:26:27.623Z,102063.47
2023-04-10T08:28:57.508Z,102062.81
2023-04-10T08:31:27.404Z,102058.88
2023-04-10T08:33:55.456Z,102059.00
2023-04-10T08:36:24.980Z,102056.09
2023-04-10T08:38:52.406Z,102054.06
2023-04-10T08:41:20.917Z,102053.69
2023-04-10T08:43:49.776Z,102054.16
2023-04-10T08:46:17.449Z,102050.13
2023-04-10T08:48:47.984Z,102043.63
2023-04-10T08:51:20.443Z,102049.78
2023-04-10T08:54:01.713Z,102049.34
2023-04-10T08:56:29.297Z,102037.34
2023-04-10T08:58:56.888Z,102026.25
2023-04-10T09:01:24.613Z,102037.59
2023-04-10T09:03:52.467Z,102029.44
2023-04-10T09:06:19.967Z,102028.47
2023-04-10T09:08:47.442Z,102024.38
2023-04-10T09:11:16.256Z,102018.13
2023-04-10T09:13:45.017Z,102006.78
2023-04-10T09:16:12.864Z,102013.94
2023-04-10T09:18:48.337Z,102007.59
2023-04-10T09:21:17.687Z,101999.31
2023-04-10T09:23:45.997Z,101993.06
2023-04-10T09:26:27.083Z,101987.19
2023-04-10T09:28:59.369Z,101991.66
2023-04-10T09:31:34.925Z,101992.50
2023-04-10T09:34:09.166Z,101984.06
2023-04-10T09:36:36.932Z,101992.72
2023-04-10T09:39:05.181Z,101980.13
2023-04-10T09:41:34.528Z,101982.78
2023-04-10T09:44:09.839Z,101968.09
2023-04-10T09:46:37.323Z,101967.03
2023-04-10T09:49:07.243Z,101966.75
2023-04-10T09:51:36.547Z,101965.81
2023-04-10T09:54:04.462Z,101968.16
2023-04-10T09:56:32.743Z,101963.28
2023-04-10T09:59:04.724Z,101957.59
2023-04-10T10:01:35.229Z,101951.47
2023-04-10T10:04:04.419Z,101950.13
2023-04-10T10:06:33.109Z,101943.81
2023-04-10T10:09:03.806Z,101935.66
2023-04-10T10:11:34.755Z,101926.13
2023-04-10T10:14:09.003Z,101936.50
2023-04-10T10:16:44.335Z,101930.81
2023-04-10T10:19:17.250Z,101923.50
2023-04-10T10:21:45.786Z,101922.16
2023-04-10T10:24:14.504Z,101925.81
2023-04-10T10:26:42.766Z,101912.34
2023-04-10T10:29:13.377Z,101919.91
2023-04-10T10:31:41.290Z,101911.28
2023-04-10T10:34:09.790Z,101914.63
2023-04-10T10:36:38.342Z,101901.09
2023-04-10T10:39:33.517Z,101894.19
2023-04-10T10:42:07.564Z,101895.91
2023-04-10T10:44:43.749Z,101894.97
2023-04-10T10:47:16.642Z,101884.41
2023-04-10T10:49:55.293Z,101879.56
2023-04-10T10:52:38.511Z,101877.75
2023-04-10T10:55:32.540Z,101878.56
2023-04-10T10:58:02.025Z,101866.50
2023-04-10T11:01:09.840Z,101875.00
2023-04-10T11:03:38.328Z,101868.19
2023-04-10T11:06:08.828Z,101863.72
2023-04-10T11:08:47.197Z,101862.25
2023-04-10T11:11:16.844Z,101850.84
2023-04-10T11:14:17.723Z,101849.91
2023-04-10T11:16:48.320Z,101849.06
2023-04-10T11:19:22.436Z,101838.72
2023-04-10T11:22:05.489Z,101837.91
2023-04-10T11:24:58.468Z,101839.53
2023-04-10T11:27:48.682Z,101841.06
2023-04-10T11:30:34.290Z,101829.06
2023-04-10T11:33:05.504Z,101824.69
2023-04-10T11:35:33.877Z,101826.44
2023-04-10T11:38:15.739Z,101814.19
2023-04-10T11:41:01.502Z,101804.03
2023-04-10T11:43:29.362Z,101803.13
2023-04-10T11:46:04.592Z,101796.19
2023-04-10T11:48:33.611Z,101797.94
2023-04-10T11:51:08.520Z,101794.47
2023-04-10T11:53:36.077Z,101790.13
2023-04-10T11:56:03.604Z,101784.94
2023-04-10T11:58:32.012Z,101785.75
2023-04-10T12:01:04.093Z,101784.06
2023-04-10T12:03:41.286Z,101784.63
2023-04-10T12:06:11.469Z,101770.16
2023-04-10T12:08:40.443Z,101761.50
2023-04-10T12:11:09.459Z,101763.22
2023-04-10T12:13:37.241Z,101758.03
2023-04-10T12:16:06.967Z,101743.16
2023-04-10T12:18:35.942Z,101743.91
2023-04-10T12:21:06.851Z,101740.47
2023-04-10T12:23:38.357Z,101739.63
2023-04-10T12:26:14.180Z,101737.75
2023-04-10T12:28:43.500Z,101730.72
2023-04-10T12:31:11.200Z,101726.50
2023-04-10T12:33:38.652Z,101726.53
2023-04-10T12:36:20.608Z,101720.34
2023-04-10T12:38:48.058Z,101715.13
2023-04-10T12:41:22.577Z,101712.53
2023-04-10T12:43:50.046Z,101715.53
2023-04-10T12:46:25.915Z,101711.16
2023-04-10T12:48:53.804Z,101707.69
2023-04-10T12:51:42.482Z,101704.22
2023-04-10T12:54:09.862Z,101698.97
2023-04-10T12:56:42.452Z,101692.06
2023-04-10T12:59:10.049Z,101681.69
2023-04-10T13:01:38.786Z,101677.28
2023-04-10T13:04:06.480Z,101674.44
2023-04-10T13:06:43.462Z,101662.31
2023-04-10T13:09:10.845Z,101664.13
2023-04-10T13:11:38.328Z,101651.88
2023-04-10T13:14:05.827Z,101656.50
2023-04-10T13:16:33.406Z,101629.38
2023-04-10T13:19:01.461Z,101632.78
2023-04-10T13:21:29.051Z,101626.69
2023-04-10T13:23:58.100Z,101625.56
2023-04-10T13:26:25.882Z,101621.25
2023-04-10T13:28:53.831Z,101618.56
2023-04-10T13:31:21.404Z,101611.31
2023-04-10T13:33:49.442Z,101605.28
2023-04-10T13:36:16.956Z,101605.31
2023-04-10T13:38:44.433Z,101593.19
2023-04-10T13:41:13.216Z,101583.22
2023-04-10T13:43:40.774Z,101583.44
2023-04-10T13:46:08.468Z,101577.28
2023-04-10T13:48:41.097Z,101571.75
2023-04-10T13:51:09.247Z,101572.84
2023-04-10T13:53:36.853Z,101575.25
2023-04-10T13:56:04.338Z,101564.66
2023-04-10T13:58:34.336Z,101563.31
2023-04-10T14:01:02.205Z,101559.28
2023-04-10T14:03:29.813Z,101549.47
2023-04-10T14:05:57.406Z,101540.88
2023-04-10T14:08:24.821Z,101539.13
2023-04-10T14:10:52.674Z,101539.59
2023-04-10T14:13:20.119Z,101537.06
2023-04-10T14:15:50.015Z,101535.47
2023-04-10T14:18:18.400Z,101539.56
2023-04-10T14:20:45.816Z,101535.13
2023-04-10T14:23:18.312Z,101533.03
2023-04-10T14:25:46.123Z,101528.78
2023-04-10T14:28:17.677Z,101529.78
2023-04-10T14:30:45.284Z,101518.47
2023-04-10T14:33:14.148Z,101512.97
2023-04-10T14:35:42.013Z,101520.06
2023-04-10T14:38:09.443Z,101516.53
2023-04-10T14:40:37.510Z,101505.94
2023-04-10T14:43:04.968Z,101497.47
2023-04-10T14:45:32.640Z,101495.88
2023-04-10T14:48:00.237Z,101488.22
2023-04-10T14:50:29.408Z,101483.91
2023-04-10T14:52:56.862Z,101478.47
2023-04-10T14:55:25.137Z,101476.28
2023-04-10T14:57:52.618Z,101472.53
2023-04-10T15:00:20.595Z,101473.34
2023-04-10T15:02:48.302Z,101467.81
2023-04-10T15:05:16.024Z,101466.00
2023-04-10T15:07:44.725Z,101462.81
2023-04-10T15:10:12.270Z,101456.38
2023-04-10T15:12:39.781Z,101448.53
2023-04-10T15:15:08.457Z,101450.66
2023-04-10T15:17:35.934Z,101441.88
2023-04-10T15:20:04.958Z,101442.28
2023-04-10T15:22:32.417Z,101436.22
2023-04-10T15:25:01.311Z,101440.44
2023-04-10T15:27:28.906Z,101437.91
2023-04-10T15:29:56.567Z,101437.09
2023-04-10T15:32:23.987Z,101427.56
2023-04-10T15:34:51.420Z,101422.06
2023-04-10T15:37:18.847Z,101424.84
2023-04-10T15:39:46.240Z,101415.13
2023-04-10T15:42:15.910Z,101407.03
2023-04-10T15:44:43.348Z,101396.38
2023-04-10T15:47:10.791Z,101400.16
2023-04-10T15:49:38.854Z,101381.44
2023-04-10T15:52:06.899Z,101381.56
2023-04-10T15:54:35.602Z,101378.00
2023-04-10T15:57:03.799Z,101376.16
2023-04-10T15:59:33.448Z,101371.69
2023-04-10T16:02:01.060Z,101364.19
2023-04-10T16:04:28.995Z,101372.75
2023-04-10T16:06:56.917Z,101364.34
2023-04-10T16:09:26.436Z,101363.19
2023-04-10T16:11:54.866Z,101351.84
2023-04-10T16:14:22.772Z,101344.63
2023-04-10T16:16:51.882Z,101337.88
2023-04-10T16:19:19.320Z,101339.50
2023-04-10T16:21:46.744Z,101335.25
2023-04-10T16:24:14.236Z,101332.78
2023-04-10T16:26:41.641Z,101331.75
2023-04-10T16:29:09.107Z,101316.75
2023-04-10T16:31:36.554Z,101316.75
2023-04-10T16:34:05.281Z,101311.63
2023-04-10T16:36:32.685Z,101313.44
2023-04-10T16:39:00.132Z,101304.63
2023-04-10T16:41:27.573Z,101303.25
2023-04-10T16:43:55.428Z,101317.41
2023-04-10T16:46:22.916Z,101297.84
2023-04-10T16:48:51.988Z,101294.50
2023-04-10T16:51:20.776Z,101289.03
2023-04-10T16:53:48.154Z,101288.75
2023-04-10T16:56:15.566Z,101284.09
2023-04-10T16:58:43.157Z,101287.81
2023-04-10T17:01:17.784Z,101285.28
2023-04-10T17:03:45.527Z,101273.59
2023-04-10T17:06:12.953Z,101266.69
2023-04-10T17:08:41.782Z,101268.63
2023-04-10T17:11:09.526Z,101255.63
2023-04-10T17:13:37.156Z,101252.28
2023-04-10T17:16:04.937Z,101249.59
2023-04-10T17:18:33.555Z,101242.56
2023-04-10T17:21:01.039Z,101244.28
2023-04-10T17:23:28.507Z,101245.13
2023-04-10T17:25:57.280Z,101247.16
2023-04-10T17:28:24.775Z,101230.47
2023-04-10T17:30:52.187Z,101239.56
2023-04-10T17:33:21.635Z,101238.69
2023-04-10T17:35:50.558Z,101225.44
2023-04-10T17:38:18.106Z,101223.94
2023-04-10T17:40:45.933Z,101224.00
2023-04-10T17:43:14.658Z,101213.50
2023-04-10T17:45:42.327Z,101202.19
2023-04-10T17:48:11.740Z,101208.28
2023-04-10T17:50:39.302Z,101206.69
2023-04-10T17:53:06.765Z,101193.38
2023-04-10T17:55:38.844Z,101201.56
2023-04-10T17:58:06.493Z,101188.44
2023-04-10T18:00:35.652Z,101187.44
2023-04-10T18:03:03.184Z,101183.97
2023-04-10T18:05:31.190Z,101183.53
2023-04-10T18:07:58.626Z,101191.28
2023-04-10T18:10:26.060Z,101189.59
2023-04-10T18:12:56.650Z,101188.53
2023-04-10T18:15:24.051Z,101186.00
2023-04-10T18:17:52.816Z,101177.25
2023-04-10T18:20:20.897Z,101186.75
2023-04-10T18:22:48.396Z,101177.19
2023-04-10T18:25:15.973Z,101178.91
2023-04-10T18:27:51.509Z,101183.28
2023-04-10T18:30:19.602Z,101179.84
2023-04-10T18:32:47.005Z,101182.69
2023-04-10T18:35:16.137Z,101185.09
2023-04-10T18:37:44.383Z,101177.38
2023-04-10T18:40:16.208Z,101174.91
2023-04-10T18:42:44.247Z,101173.03
2023-04-10T18:45:13.329Z,101163.50
2023-04-10T18:47:40.779Z,101169.75
2023-04-10T18:50:10.267Z,101163.47
2023-04-10T18:52:39.014Z,101164.50
2023-04-10T18:55:07.201Z,101156.63
2023-04-10T18:57:34.666Z,101150.53
2023-04-10T19:00:04.439Z,101152.22
2023-04-10T19:02:31.956Z,101141.16
2023-04-10T19:04:59.666Z,101137.69
2023-04-10T19:07:27.070Z,101140.38
2023-04-10T19:09:56.064Z,101134.13
2023-04-10T19:12:23.482Z,101130.84
2023-04-10T19:14:50.898Z,101122.94
2023-04-10T19:17:21.796Z,101126.44
2023-04-10T19:19:49.404Z,101113.56
2023-04-10T19:22:17.124Z,101108.41
2023-04-10T19:24:44.572Z,101108.38
2023-04-10T19:27:13.423Z,101116.00
2023-04-10T19:29:40.850Z,101107.25
2023-04-10T19:32:09.585Z,101094.03
2023-04-10T19:34:37.025Z,101086.84
2023-04-10T19:37:04.482Z,101077.91
2023-04-10T19:39:31.923Z,101078.72
2023-04-10T19:41:59.486Z,101077.00
2023-04-10T19:44:28.390Z,101068.81
2023-04-10T19:46:55.926Z,101072.69
2023-04-10T19:49:23.517Z,101065.53
2023-04-10T19:51:51.139Z,101069.03
2023-04-10T19:54:18.607Z,101063.66
2023-04-10T19:56:46.060Z,101054.06
2023-04-10T19:59:13.520Z,101052.03
2023-04-10T20:01:42.319Z,101048.19
2023-04-10T20:04:09.936Z,101042.09
2023-04-10T20:06:37.547Z,101043.94
2023-04-10T20:09:05.126Z,101041.44
2023-04-10T20:11:32.795Z,101029.97
2023-04-10T20:14:00.364Z,101044.22
2023-04-10T20:16:27.855Z,101031.28
2023-04-10T20:18:56.905Z,101020.97
2023-04-10T20:21:24.514Z,101015.72
2023-04-10T20:23:51.984Z,101016.50
2023-04-10T20:26:19.402Z,101014.81
2023-04-10T20:28:46.927Z,101005.34
2023-04-10T20:31:15.218Z,101011.56
2023-04-10T20:33:42.732Z,101003.75
2023-04-10T20:36:11.740Z,100990.81
2023-04-10T20:38:39.462Z,100980.31
2023-04-10T20:41:07.062Z,100989.88
2023-04-10T20:43:34.506Z,100990.91
2023-04-10T20:46:03.964Z,100993.50
2023-04-10T20:48:31.446Z,100994.34
2023-04-10T20:50:58.867Z,100987.44
2023-04-10T20:53:28.970Z,100985.66
2023-04-10T20:55:56.504Z,100997.75
2023-04-10T20:58:24.128Z,100986.44
2023-04-10T21:00:52.290Z,100986.50
2023-04-10T21:03:20.040Z,100986.50
2023-04-10T21:05:47.725Z,100987.38
2023-04-10T21:08:15.400Z,100977.91
2023-04-10T21:10:44.920Z,100956.19
2023-04-10T21:13:13.569Z,100964.97
2023-04-10T21:15:41.021Z,100966.72
2023-04-10T21:18:08.452Z,100970.09
2023-04-10T21:20:36.034Z,100960.56
2023-04-10T21:23:03.638Z,100965.84
2023-04-10T21:25:32.378Z,100964.97
2023-04-10T21:28:01.495Z,100966.72
2023-04-10T21:30:29.423Z,100964.94
2023-04-10T21:32:57.029Z,100958.81
2023-04-10T21:35:24.780Z,100959.75
2023-04-10T21:37:56.505Z,100955.53
2023-04-10T21:40:24.842Z,100949.44
2023-04-10T21:42:53.371Z,100946.88
2023-04-10T21:45:23.568Z,100933.91
2023-04-10T21:47:51.074Z,100935.66
2023-04-10T21:50:18.645Z,100927.84
2023-04-10T21:52:46.125Z,100914.69
2023-04-10T21:55:15.291Z,100913.06
2023-04-10T21:57:42.748Z,100910.50
2023-04-10T22:00:12.443Z,100915.75
2023-04-10T22:02:41.358Z,100902.66
2023-04-10T22:05:09.361Z,100904.56
2023-04-10T22:07:36.811Z,100892.44
2023-04-10T22:10:04.620Z,100890.75
2023-04-10T22:12:32.094Z,100890.75
2023-04-10T22:14:59.536Z,100884.72
2023-04-10T22:17:27.146Z,100881.22
2023-04-10T22:19:55.885Z,100881.25
2023-04-10T22:22:23.342Z,100886.41
2023-04-10T22:24:50.951Z,100870.03
2023-04-10T22:27:18.399Z,100865.72
2023-04-10T22:29:56.215Z,100857.09
2023-04-10T22:32:30.126Z,100851.91
2023-04-10T22:35:00.621Z,100854.50
2023-04-10T22:37:28.262Z,100851.03
2023-04-10T22:39:56.226Z,100846.75
2023-04-10T22:42:24.082Z,100843.28
2023-04-10T22:44:51.573Z,100840.69
2023-04-10T22:47:19.007Z,100841.44
2023-04-10T22:49:46.484Z,100840.69
2023-04-10T22:52:16.245Z,100835.44
2023-04-10T22:54:43.683Z,100843.19
2023-04-10T22:57:11.133Z,100826.72
2023-04-10T22:59:38.731Z,100834.56
2023-04-10T23:02:06.316Z,100821.59
2023-04-10T23:04:34.042Z,100821.53
2023-04-10T23:07:01.556Z,100811.22
2023-04-10T23:09:30.328Z,100799.09
2023-04-10T23:11:57.783Z,100809.56
2023-04-10T23:14:25.198Z,100799.09
2023-04-10T23:16:52.619Z,100798.19
2023-04-10T23:19:20.052Z,100789.56
2023-04-10T23:21:47.549Z,100793.19
2023-04-10T23:24:14.979Z,100775.03
2023-04-10T23:26:43.772Z,100765.47
2023-04-10T23:29:11.219Z,100766.41
2023-04-10T23:31:38.705Z,100763.84
2023-04-10T23:34:06.203Z,100753.47
2023-04-10T23:36:33.620Z,100743.22
2023-04-10T23:39:01.039Z,100729.38
2023-04-10T23:41:28.470Z,100722.50
2023-04-10T23:43:57.264Z,100724.22
2023-04-10T23:46:24.830Z,100716.31
2023-04-10T23:48:54.317Z,100711.16
2023-04-10T23:51:21.940Z,100715.59
2023-04-10T23:53:49.331Z,100709.59
2023-04-10T23:56:16.804Z,100692.31
2023-04-10T23:58:44.247Z,100697.44
